Mc Indoe Falls, Vermont
Current Conditions -  °F | °C
As of 9:15 AM on Saturday 22 Nov 2014 (Local Time) from KCDA Reporting Station
Clear Clear  
Wind Chill: 14°   Ceiling: Unl
Heat Index: 21°   Visibility: 10mi
Dew Point: 12°   Wind: 6mph
Humidity: 69%   Direction: 150°SSE
Pressure: 30.19"   Gusts: NA
Location:  44.2588°N, 72.0585°W
Report Text: KCDA 221415Z AUTO 15005KT 10SM CLR M06/M11 A3019 RMK AO2 T10601109
Loading
Personal Weather Stations






























Interactive Weather Map New forecast layout! Learn more

10-Day Weather Forecast

Advertisements
Track Severe Weather on mobile